createdAt,value
2023-01-06T00:03:42.356Z,1.74
2023-01-06T00:08:50.614Z,1.82
2023-01-06T00:13:56.626Z,1.79
2023-01-06T00:19:02.938Z,1.72
2023-01-06T00:24:09.981Z,1.72
2023-01-06T00:29:15.966Z,1.77
2023-01-06T00:34:21.984Z,1.77
2023-01-06T00:39:27.766Z,1.77
2023-01-06T00:44:34.695Z,1.76
2023-01-06T00:49:40.477Z,1.72
2023-01-06T00:54:46.469Z,1.74
2023-01-06T00:59:53.583Z,1.74
2023-01-06T01:04:59.184Z,1.73
2023-01-06T01:10:06.235Z,1.68
2023-01-06T01:15:12.717Z,1.64
2023-01-06T01:20:19.534Z,1.67
2023-01-06T01:25:25.219Z,1.69
2023-01-06T01:30:31.084Z,1.66
2023-01-06T01:35:36.871Z,1.63
2023-01-06T01:40:48.982Z,1.54
2023-01-06T01:45:55.813Z,1.51
2023-01-06T01:51:05.736Z,1.53
2023-01-06T01:56:17.128Z,1.52
2023-01-06T02:01:23.322Z,1.48
2023-01-06T02:06:30.422Z,1.37
2023-01-06T02:11:38.070Z,1.32
2023-01-06T02:17:01.002Z,1.34
2023-01-06T02:22:25.815Z,1.32
2023-01-06T02:27:47.998Z,1.25
2023-01-06T02:33:06.045Z,1.22
2023-01-06T02:38:23.614Z,1.24
2023-01-06T02:43:45.356Z,1.23
2023-01-06T02:50:29.369Z,1.25
2023-01-06T02:55:42.566Z,1.18
2023-01-06T03:00:53.612Z,1.12
2023-01-06T03:06:04.941Z,1.09
2023-01-06T03:11:11.609Z,1.11
2023-01-06T03:16:18.195Z,1.10
2023-01-06T03:21:26.783Z,1.04
2023-01-06T03:26:33.290Z,1.01
2023-01-06T03:31:47.883Z,0.98
2023-01-06T03:37:03.729Z,1.00
2023-01-06T03:42:40.814Z,1.04
2023-01-06T03:47:56.872Z,1.05
2023-01-06T03:53:16.216Z,1.05
2023-01-06T03:58:24.608Z,1.01
2023-01-06T04:03:31.456Z,0.98
2023-01-06T04:08:37.358Z,0.98
2023-01-06T04:13:43.489Z,1.04
2023-01-06T04:18:49.715Z,1.06
2023-01-06T04:23:56.654Z,1.03
2023-01-06T04:29:03.488Z,1.01
2023-01-06T04:34:09.336Z,0.98
2023-01-06T04:39:15.121Z,0.97
2023-01-06T04:44:21.028Z,0.98
2023-01-06T04:49:27.048Z,1.01
2023-01-06T04:54:32.750Z,1.03
2023-01-06T04:59:38.393Z,0.99
2023-01-06T05:04:47.966Z,0.94
2023-01-06T05:09:54.394Z,0.84
2023-01-06T05:15:00.186Z,0.75
2023-01-06T05:20:07.512Z,0.73
2023-01-06T05:25:13.303Z,0.77
2023-01-06T05:30:19.556Z,0.76
2023-01-06T05:35:25.288Z,0.73
2023-01-06T05:40:31.062Z,0.70
2023-01-06T05:45:38.528Z,0.64
2023-01-06T05:50:44.625Z,0.57
2023-01-06T05:55:50.796Z,0.46
2023-01-06T06:00:56.930Z,0.43
2023-01-06T06:06:05.889Z,0.42
2023-01-06T06:11:14.357Z,0.35
2023-01-06T06:16:23.438Z,0.31
2023-01-06T06:21:30.873Z,0.28
2023-01-06T06:26:37.214Z,0.24
2023-01-06T06:31:44.239Z,0.21
2023-01-06T06:36:50.109Z,0.19
2023-01-06T06:41:56.017Z,0.21
2023-01-06T06:47:01.834Z,0.28
2023-01-06T06:52:07.933Z,0.31
2023-01-06T06:57:13.825Z,0.30
2023-01-06T07:02:19.912Z,0.30
2023-01-06T07:07:26.132Z,0.31
2023-01-06T07:12:31.918Z,0.29
2023-01-06T07:17:37.986Z,0.24
2023-01-06T07:22:44.579Z,0.24
2023-01-06T07:27:55.564Z,0.30
2023-01-06T07:33:00.252Z,0.35
2023-01-06T07:38:07.746Z,0.36
2023-01-06T07:43:13.820Z,0.39
2023-01-06T07:48:20.843Z,0.40
2023-01-06T07:53:27.035Z,0.40
2023-01-06T07:58:33.000Z,0.42
2023-01-06T08:03:38.989Z,0.46
2023-01-06T08:08:44.779Z,0.59
2023-01-06T08:13:50.623Z,0.64
2023-01-06T08:18:56.616Z,0.67
2023-01-06T08:24:02.568Z,0.67
2023-01-06T08:29:08.619Z,0.70
2023-01-06T08:34:14.662Z,0.70
2023-01-06T08:39:20.443Z,0.69
2023-01-06T08:44:27.055Z,0.78
2023-01-06T08:49:36.046Z,0.87
2023-01-06T08:54:42.068Z,0.90
2023-01-06T08:59:48.019Z,0.92
2023-01-06T09:04:53.987Z,0.95
2023-01-06T09:09:59.934Z,1.00
2023-01-06T09:15:06.859Z,1.01
2023-01-06T09:20:13.103Z,1.04
2023-01-06T09:25:21.168Z,1.05
2023-01-06T09:30:26.854Z,1.15
2023-01-06T09:35:32.581Z,1.19
2023-01-06T09:40:50.394Z,1.17
2023-01-06T09:46:06.994Z,1.21
2023-01-06T09:51:21.223Z,1.19
2023-01-06T09:56:25.861Z,1.18
2023-01-06T10:01:41.426Z,1.17
2023-01-06T10:06:53.827Z,1.17
2023-01-06T10:12:13.436Z,1.20
2023-01-06T10:17:36.869Z,1.16
2023-01-06T10:22:51.021Z,1.13
2023-01-06T10:28:02.194Z,1.11
2023-01-06T10:33:14.721Z,1.13
2023-01-06T10:38:27.362Z,1.20
2023-01-06T10:43:33.136Z,1.25
2023-01-06T10:48:40.855Z,1.27
2023-01-06T10:53:47.054Z,1.28
2023-01-06T10:58:57.605Z,1.34
2023-01-06T11:04:15.488Z,1.39
2023-01-06T11:09:32.594Z,1.44
2023-01-06T11:14:39.695Z,1.54
2023-01-06T11:19:46.770Z,1.59
2023-01-06T11:24:55.431Z,1.63
2023-01-06T11:30:25.614Z,1.68
2023-01-06T11:35:34.012Z,1.66
2023-01-06T11:40:39.648Z,1.67
2023-01-06T11:45:49.273Z,1.70
2023-01-06T11:50:57.572Z,1.72
2023-01-06T11:56:06.256Z,1.76
2023-01-06T12:01:20.712Z,1.81
2023-01-06T12:06:32.984Z,1.82
2023-01-06T12:11:45.560Z,1.80
2023-01-06T12:17:06.983Z,1.76
2023-01-06T12:22:22.009Z,1.72
2023-01-06T12:27:34.240Z,1.68
2023-01-06T12:32:45.446Z,1.66
2023-01-06T12:37:52.256Z,1.63
2023-01-06T12:43:05.094Z,1.65
2023-01-06T12:48:21.211Z,1.68
2023-01-06T12:53:31.504Z,1.69
2023-01-06T12:58:46.909Z,1.66
2023-01-06T13:04:15.089Z,1.66
2023-01-06T13:09:40.261Z,1.61
2023-01-06T13:14:55.668Z,1.56
2023-01-06T13:20:06.176Z,1.51
2023-01-06T13:25:29.424Z,1.46
2023-01-06T13:30:55.956Z,1.41
2023-01-06T13:36:18.540Z,1.44
2023-01-06T13:41:26.655Z,1.47
2023-01-06T13:46:34.761Z,1.44
2023-01-06T13:51:44.399Z,1.35
2023-01-06T13:57:24.729Z,1.27
2023-01-06T14:03:14.335Z,1.16
2023-01-06T14:08:23.875Z,1.05
2023-01-06T14:13:38.955Z,1.01
2023-01-06T14:18:51.288Z,0.97
2023-01-06T14:24:00.937Z,0.92
2023-01-06T14:29:38.014Z,0.89
2023-01-06T14:34:50.377Z,0.92
2023-01-06T14:39:59.228Z,0.90
2023-01-06T14:45:17.725Z,0.83
2023-01-06T14:50:34.797Z,0.79
2023-01-06T14:55:52.773Z,0.73
2023-01-06T15:01:00.138Z,0.76
2023-01-06T15:06:18.415Z,0.81
2023-01-06T15:11:29.641Z,0.86
2023-01-06T15:16:38.073Z,0.86
2023-01-06T15:21:47.031Z,0.83
2023-01-06T15:26:55.252Z,0.76
2023-01-06T15:32:02.258Z,0.68
2023-01-06T15:37:17.528Z,0.67
2023-01-06T15:42:25.860Z,0.69
2023-01-06T15:47:35.159Z,0.67
2023-01-06T15:52:47.686Z,0.61
2023-01-06T15:57:58.533Z,0.60
2023-01-06T16:03:06.397Z,0.65
2023-01-06T16:08:22.850Z,0.66
2023-01-06T16:13:30.024Z,0.62
2023-01-06T16:18:37.846Z,0.55
2023-01-06T16:23:47.623Z,0.50
2023-01-06T16:28:55.934Z,0.49
2023-01-06T16:34:25.000Z,0.55
2023-01-06T16:39:31.038Z,0.57
2023-01-06T16:44:37.101Z,0.56
2023-01-06T16:49:42.808Z,0.51
2023-01-06T16:54:54.126Z,0.47
2023-01-06T17:00:03.104Z,0.52
2023-01-06T17:05:20.601Z,0.53
2023-01-06T17:10:27.018Z,0.44
2023-01-06T17:15:33.231Z,0.37
2023-01-06T17:20:38.895Z,0.34
2023-01-06T17:25:46.063Z,0.33
2023-01-06T17:30:52.561Z,0.25
2023-01-06T17:36:00.127Z,0.18
2023-01-06T17:41:11.458Z,0.15
2023-01-06T17:46:23.655Z,0.09
2023-01-06T17:51:29.715Z,0.01
2023-01-06T17:56:35.616Z,-0.05
2023-01-06T18:01:41.744Z,-0.05
2023-01-06T18:06:52.752Z,-0.05
2023-01-06T18:12:02.968Z,-0.09
2023-01-06T18:17:22.139Z,-0.19
2023-01-06T18:22:29.773Z,-0.21
2023-01-06T18:27:36.965Z,-0.23
2023-01-06T18:32:43.811Z,-0.24
2023-01-06T18:37:52.625Z,-0.22
2023-01-06T18:42:59.310Z,-0.19
2023-01-06T18:48:27.105Z,-0.18
2023-01-06T18:53:38.051Z,-0.21
2023-01-06T18:58:47.469Z,-0.20
2023-01-06T19:04:02.810Z,-0.17
2023-01-06T19:09:27.705Z,-0.18
2023-01-06T19:14:36.370Z,-0.17
2023-01-06T19:19:43.596Z,-0.13
2023-01-06T19:24:57.742Z,-0.09
2023-01-06T19:30:37.583Z,-0.09
2023-01-06T19:35:43.569Z,-0.04
2023-01-06T19:40:49.442Z,0.01
2023-01-06T19:45:55.709Z,-0.00
2023-01-06T19:51:16.454Z,-0.02
2023-01-06T19:56:24.201Z,0.01
2023-01-06T20:01:33.427Z,0.02
2023-01-06T20:06:39.104Z,0.01
2023-01-06T20:11:45.286Z,0.02
2023-01-06T20:16:51.380Z,0.06
2023-01-06T20:21:57.119Z,0.07
2023-01-06T20:27:02.800Z,0.06
2023-01-06T20:32:09.384Z,0.10
2023-01-06T20:37:15.360Z,0.12
2023-01-06T20:42:21.751Z,0.14
2023-01-06T20:47:27.758Z,0.17
2023-01-06T20:52:33.581Z,0.22
2023-01-06T20:57:39.501Z,0.24
2023-01-06T21:02:45.462Z,0.25
2023-01-06T21:07:51.520Z,0.30
2023-01-06T21:12:58.539Z,0.34
2023-01-06T21:18:04.426Z,0.35
2023-01-06T21:23:10.339Z,0.32
2023-01-06T21:28:16.467Z,0.33
2023-01-06T21:33:22.435Z,0.37
2023-01-06T21:38:28.152Z,0.37
2023-01-06T21:43:33.765Z,0.37
2023-01-06T21:48:39.634Z,0.39
2023-01-06T21:53:46.044Z,0.42
2023-01-06T21:58:51.810Z,0.41
2023-01-06T22:03:57.516Z,0.38
2023-01-06T22:09:05.622Z,0.39
2023-01-06T22:14:13.376Z,0.47
2023-01-06T22:19:19.822Z,0.53
2023-01-06T22:24:26.067Z,0.52
2023-01-06T22:29:32.012Z,0.50
2023-01-06T22:34:38.082Z,0.50
2023-01-06T22:39:45.551Z,0.49
2023-01-06T22:44:51.362Z,0.52
2023-01-06T22:49:57.852Z,0.58
2023-01-06T22:55:04.153Z,0.61
2023-01-06T23:00:15.941Z,0.61
2023-01-06T23:05:21.755Z,0.59
2023-01-06T23:10:27.683Z,0.64
2023-01-06T23:15:33.583Z,0.67
2023-01-06T23:20:39.252Z,0.68
2023-01-06T23:25:46.908Z,0.71
2023-01-06T23:30:52.871Z,0.74
2023-01-06T23:36:02.533Z,0.76
2023-01-06T23:41:10.873Z,0.74
2023-01-06T23:46:19.413Z,0.75
2023-01-06T23:51:26.317Z,0.81
2023-01-06T23:56:33.885Z,0.84
